Time;durP1;ratioP1;P1;durP2;ratioP2;P2;SDS_P1;SDS_P2;PMS_P1;PMS_P2;Temp;Humidity;BMP_temperature;BMP_pressure;BME280_temperature;BME280_humidity;BME280_pressure;Samples;Min_cycle;Max_cycle;Signal;HPM_P1;HPM_P2
2023/08/11 00:01:30;;;;;;;5.85;3.80;;;;;;;;;;5113695;28;20027;-71
2023/08/11 00:03:56;;;;;;;3.75;2.97;;;;;;;;;;5096204;28;20487;-71
2023/08/11 00:06:23;;;;;;;3.38;2.65;;;;;;;;;;5113583;28;20099;-71
2023/08/11 00:08:49;;;;;;;3.92;2.90;;;;;;;;;;5114243;28;20023;-73
2023/08/11 00:11:15;;;;;;;4.38;3.38;;;;;;;;;;5114161;28;20038;-72
2023/08/11 00:13:42;;;;;;;3.00;2.65;;;;;;;;;;5113414;28;20594;-72
2023/08/11 00:16:10;;;;;;;3.58;2.83;;;;;;;;;;5114204;28;20019;-71
2023/08/11 00:18:36;;;;;;;4.22;3.33;;;;;;;;;;5112593;28;20028;-71
2023/08/11 00:21:02;;;;;;;5.20;3.70;;;;;;;;;;5114044;28;20059;-72
2023/08/11 00:23:30;;;;;;;5.60;3.30;;;;;;;;;;5113143;28;20016;-71
2023/08/11 00:25:56;;;;;;;6.65;3.88;;;;;;;;;;5113948;28;20027;-73
2023/08/11 00:28:22;;;;;;;4.38;3.55;;;;;;;;;;5130132;27;20023;-71
2023/08/11 00:30:50;;;;;;;4.75;4.05;;;;;;;;;;5093372;28;20127;-71
2023/08/11 00:33:16;;;;;;;4.70;3.67;;;;;;;;;;5093642;28;20032;-71
2023/08/11 00:35:42;;;;;;;5.55;4.22;;;;;;;;;;5100677;28;20209;-72
2023/08/11 00:38:08;;;;;;;7.18;4.55;;;;;;;;;;5105328;28;20027;-72
2023/08/11 00:40:34;;;;;;;7.05;5.55;;;;;;;;;;5106312;28;20016;-71
2023/08/11 00:43:00;;;;;;;6.38;5.35;;;;;;;;;;5107335;28;20482;-70
2023/08/11 00:45:26;;;;;;;6.60;4.88;;;;;;;;;;5108688;28;20042;-70
2023/08/11 00:47:53;;;;;;;5.82;4.40;;;;;;;;;;5105233;28;20024;-70
2023/08/11 00:50:19;;;;;;;5.00;4.20;;;;;;;;;;5094516;28;20020;-70
2023/08/11 00:52:48;;;;;;;8.07;4.63;;;;;;;;;;5092722;28;20135;-70
2023/08/11 00:55:14;;;;;;;6.82;4.03;;;;;;;;;;5093299;28;20016;-70
2023/08/11 00:57:40;;;;;;;4.93;3.88;;;;;;;;;;5092304;28;20024;-70
2023/08/11 01:00:13;;;;;;;5.70;3.88;;;;;;;;;;5092847;28;20381;-71
2023/08/11 01:02:42;;;;;;;5.93;3.75;;;;;;;;;;5092488;28;20024;-71
2023/08/11 01:05:12;;;;;;;4.50;3.10;;;;;;;;;;5093127;28;20047;-71
2023/08/11 01:07:42;;;;;;;5.05;3.40;;;;;;;;;;5092178;28;20157;-70
2023/08/11 01:10:17;;;;;;;5.53;3.70;;;;;;;;;;5093009;28;20111;-70
2023/08/11 01:12:49;;;;;;;5.18;3.95;;;;;;;;;;5091477;28;20667;-70
2023/08/11 01:15:20;;;;;;;4.80;4.00;;;;;;;;;;5092686;28;20484;-71
2023/08/11 01:17:48;;;;;;;6.05;3.78;;;;;;;;;;5091946;28;20039;-70
2023/08/11 01:20:16;;;;;;;6.63;3.60;;;;;;;;;;5092860;28;20075;-71
2023/08/11 01:22:44;;;;;;;8.98;4.20;;;;;;;;;;5091973;28;20096;-70
2023/08/11 01:25:13;;;;;;;5.75;3.65;;;;;;;;;;5092701;28;20020;-71
2023/08/11 01:27:44;;;;;;;4.10;3.40;;;;;;;;;;5081371;28;20025;-70
2023/08/11 01:30:10;;;;;;;;;;;;;;;;;;5101560;28;20062;-71
2023/08/11 01:32:36;;;;;;;;;;;;;;;;;;5112460;28;19919;-70
2023/08/11 01:35:05;;;;;;;;;;;;;;;;;;5113317;28;20261;-70
2023/08/11 01:37:31;;;;;;;;;;;;;;;;;;5112434;28;19994;-71
2023/08/11 01:39:57;;;;;;;;;;;;;;;;;;5113245;28;19904;-71
2023/08/11 01:42:23;;;;;;;;;;;;;;;;;;5113163;28;19910;-71
2023/08/11 01:44:49;;;;;;;;;;;;;;;;;;5112700;28;19907;-71
2023/08/11 01:47:15;;;;;;;;;;;;;;;;;;5113044;28;19946;-71
2023/08/11 01:49:41;;;;;;;;;;;;;;;;;;5112647;28;20266;-70
2023/08/11 01:52:08;;;;;;;;;;;;;;;;;;5113109;28;19920;-72
2023/08/11 01:54:34;;;;;;;;;;;;;;;;;;5112219;28;19904;-71
2023/08/11 01:56:59;;;;;;;;;;;;;;;;;;5112651;28;19911;-71
2023/08/11 01:59:25;;;;;;;;;;;;;;;;;;5112821;28;20383;-70
2023/08/11 02:01:52;;;;;;;;;;;;;;;;;;5112231;28;19904;-71
2023/08/11 02:04:17;;;;;;;;;;;;;;;;;;5113328;28;19942;-71
2023/08/11 02:06:45;;;;;;;;;;;;;;;;;;5112008;28;19903;-71
2023/08/11 02:09:12;;;;;;;;;;;;;;;;;;5112763;28;19926;-71
2023/08/11 02:11:38;;;;;;;;;;;;;;;;;;5111566;28;20368;-71
2023/08/11 02:14:04;;;;;;;;;;;;;;;;;;5112895;28;19936;-71
2023/08/11 02:16:30;;;;;;;;;;;;;;;;;;5112268;28;19910;-70
2023/08/11 02:18:56;;;;;;;;;;;;;;;;;;5112677;28;19961;-71
2023/08/11 02:21:21;;;;;;;;;;;;;;;;;;5112724;28;19910;-72
2023/08/11 02:23:48;;;;;;;;;;;;;;;;;;5114614;28;20489;-71
2023/08/11 02:26:15;;;;;;;;;;;;;;;;;;5116902;28;20306;-71
2023/08/11 02:28:41;;;;;;;;;;;;;;;;;;5134566;27;19926;-70
2023/08/11 02:31:08;;;;;;;;;;;;;;;;;;5137262;27;19968;-71
2023/08/11 02:33:34;;;;;;;;;;;;;;;;;;5136364;27;19903;-72
2023/08/11 02:36:00;;;;;;;;;;;;;;;;;;5136735;27;19910;-71
2023/08/11 02:38:26;;;;;;;;;;;;;;;;;;5137023;27;19914;-71
2023/08/11 02:40:51;;;;;;;;;;;;;;;;;;5136152;27;19904;-71
2023/08/11 02:43:17;;;;;;;;;;;;;;;;;;5136733;27;19904;-71
2023/08/11 02:45:43;;;;;;;;;;;;;;;;;;5136080;27;19948;-71
2023/08/11 02:48:09;;;;;;;;;;;;;;;;;;5136703;27;20007;-71
2023/08/11 02:50:35;;;;;;;;;;;;;;;;;;5136015;27;19903;-71
2023/08/11 02:53:01;;;;;;;;;;;;;;;;;;5136529;27;19914;-72
2023/08/11 02:55:27;;;;;;;;;;;;;;;;;;5136666;27;20378;-71
2023/08/11 02:57:53;;;;;;;;;;;;;;;;;;5135623;27;19903;-71
2023/08/11 03:00:19;;;;;;;;;;;;;;;;;;5136318;27;20475;-72
2023/08/11 03:02:48;;;;;;;;;;;;;;;;;;5135562;27;19955;-71
2023/08/11 03:05:14;;;;;;;;;;;;;;;;;;5137022;27;19931;-71
2023/08/11 03:07:40;;;;;;;;;;;;;;;;;;5135679;27;19949;-71
2023/08/11 03:10:06;;;;;;;;;;;;;;;;;;5136588;27;19907;-71
2023/08/11 03:12:32;;;;;;;;;;;;;;;;;;5135972;27;19911;-70
2023/08/11 03:14:58;;;;;;;;;;;;;;;;;;5136455;27;19998;-71
2023/08/11 03:17:24;;;;;;;;;;;;;;;;;;5136366;27;19910;-71
2023/08/11 03:19:50;;;;;;;;;;;;;;;;;;5135368;27;20088;-71
2023/08/11 03:22:19;;;;;;;;;;;;;;;;;;5136227;27;19959;-71
2023/08/11 03:24:45;;;;;;;;;;;;;;;;;;5135140;27;20340;-70
2023/08/11 03:27:18;;;;;;;;;;;;;;;;;;5129701;27;19904;-71
2023/08/11 03:29:44;;;;;;;;;;;;;;;;;;5114262;28;19915;-72
2023/08/11 03:32:10;;;;;;;;;;;;;;;;;;5115187;28;20343;-71
2023/08/11 03:34:37;;;;;;;;;;;;;;;;;;5113685;28;19938;-70
2023/08/11 03:37:03;;;;;;;;;;;;;;;;;;5115514;28;19998;-70
2023/08/11 03:39:29;;;;;;;;;;;;;;;;;;5115295;28;20340;-72
2023/08/11 03:41:55;;;;;;;;;;;;;;;;;;5114559;28;20361;-70
2023/08/11 03:44:20;;;;;;;;;;;;;;;;;;5096969;28;19986;-71
2023/08/11 03:46:46;;;;;;;;;;;;;;;;;;5114038;28;20375;-73
2023/08/11 03:49:12;;;;;;;;;;;;;;;;;;5114975;28;19903;-71
2023/08/11 03:51:38;;;;;;;;;;;;;;;;;;5114277;28;19966;-71
2023/08/11 03:54:04;;;;;;;;;;;;;;;;;;5115027;28;19904;-70
2023/08/11 03:56:30;;;;;;;;;;;;;;;;;;5115389;28;19943;-71
2023/08/11 03:58:56;;;;;;;;;;;;;;;;;;5114170;28;19912;-72
2023/08/11 04:01:22;;;;;;;;;;;;;;;;;;5114832;28;20399;-71
2023/08/11 04:03:48;;;;;;;;;;;;;;;;;;5114054;28;19996;-70
2023/08/11 04:06:14;;;;;;;;;;;;;;;;;;5114849;28;19904;-71
2023/08/11 04:08:40;;;;;;;;;;;;;;;;;;5114010;28;19911;-70
2023/08/11 04:11:05;;;;;;;;;;;;;;;;;;5114762;28;19933;-71
2023/08/11 04:13:32;;;;;;;;;;;;;;;;;;5114787;28;19911;-71
2023/08/11 04:15:59;;;;;;;;;;;;;;;;;;5113872;28;19910;-71
2023/08/11 04:18:25;;;;;;;;;;;;;;;;;;5114648;28;19946;-71
2023/08/11 04:20:51;;;;;;;;;;;;;;;;;;5113458;28;19903;-71
2023/08/11 04:23:17;;;;;;;;;;;;;;;;;;5115072;28;20061;-71
2023/08/11 04:25:43;;;;;;;;;;;;;;;;;;5116038;28;19904;-70
2023/08/11 04:28:09;;;;;;;;;;;;;;;;;;5130393;27;20296;-71
2023/08/11 04:30:35;;;;;;;;;;;;;;;;;;5134422;27;19938;-69
2023/08/11 04:33:01;;;;;;;;;;;;;;;;;;5134502;27;20305;-70
2023/08/11 04:35:27;;;;;;;;;;;;;;;;;;5134760;27;19903;-71
2023/08/11 04:37:53;;;;;;;;;;;;;;;;;;5134015;27;20363;-71
2023/08/11 04:40:19;;;;;;;;;;;;;;;;;;5134806;27;19904;-70
2023/08/11 04:42:46;;;;;;;;;;;;;;;;;;5133957;27;20528;-70
2023/08/11 04:45:14;;;;;;;;;;;;;;;;;;5134504;27;19904;-71
2023/08/11 04:47:40;;;;;;;;;;;;;;;;;;5133058;27;19904;-70
2023/08/11 04:50:08;;;;;;;;;;;;;;;;;;5134435;27;19913;-70
2023/08/11 04:52:33;;;;;;;;;;;;;;;;;;5134413;27;19960;-70
2023/08/11 04:54:59;;;;;;;;;;;;;;;;;;5133690;27;20292;-70
2023/08/11 04:57:25;;;;;;;;;;;;;;;;;;5134526;27;19903;-71
2023/08/11 04:59:51;;;;;;;;;;;;;;;;;;5133542;27;19928;-70
2023/08/11 05:02:17;;;;;;;;;;;;;;;;;;5134303;27;19903;-70
2023/08/11 05:04:43;;;;;;;;;;;;;;;;;;5133475;27;19903;-70
2023/08/11 05:07:09;;;;;;;;;;;;;;;;;;5134193;27;19903;-70
2023/08/11 05:09:38;;;;;;;;;;;;;;;;;;5134325;27;20362;-70
2023/08/11 05:12:04;;;;;;;;;;;;;;;;;;5133788;27;19914;-70
2023/08/11 05:14:30;;;;;;;;;;;;;;;;;;5134121;27;19907;-70
2023/08/11 05:16:56;;;;;;;;;;;;;;;;;;5133221;27;19907;-71
2023/08/11 05:19:21;;;;;;;;;;;;;;;;;;5133891;27;19907;-70
2023/08/11 05:21:47;;;;;;;;;;;;;;;;;;5133115;27;19904;-70
2023/08/11 05:24:13;;;;;;;;;;;;;;;;;;5134206;27;19947;-71
2023/08/11 05:26:39;;;;;;;;;;;;;;;;;;5131462;27;20355;-70
2023/08/11 05:29:06;;;;;;;;;;;;;;;;;;5112476;28;19991;-71
2023/08/11 05:31:32;;;;;;;;;;;;;;;;;;5113389;28;19908;-71
2023/08/11 05:33:58;;;;;;;;;;;;;;;;;;5112077;28;20372;-71
2023/08/11 05:36:24;;;;;;;;;;;;;;;;;;5095018;28;19910;-71
2023/08/11 05:38:50;;;;;;;;;;;;;;;;;;5112606;28;20280;-71
2023/08/11 05:41:16;;;;;;;;;;;;;;;;;;5113141;28;19908;-71
2023/08/11 05:43:42;;;;;;;;;;;;;;;;;;5112168;28;19911;-71
2023/08/11 05:46:08;;;;;;;;;;;;;;;;;;5112861;28;20284;-71
2023/08/11 05:48:35;;;;;;;;;;;;;;;;;;5112892;28;19904;-71
2023/08/11 05:51:01;;;;;;;;;;;;;;;;;;5112176;28;19912;-71
2023/08/11 05:53:27;;;;;;;;;;;;;;;;;;5113114;28;20283;-71
2023/08/11 05:55:53;;;;;;;;;;;;;;;;;;5112107;28;19980;-71
2023/08/11 05:58:19;;;;;;;;;;;;;;;;;;5115144;28;19904;-72
2023/08/11 06:00:45;;;;;;;;;;;;;;;;;;5098436;28;19904;-71
2023/08/11 06:03:11;;;;;;;;;;;;;;;;;;5117457;28;19904;-71
2023/08/11 06:05:37;;;;;;;;;;;;;;;;;;5117136;28;19915;-71
2023/08/11 06:08:03;;;;;;;;;;;;;;;;;;5116747;28;19990;-70
2023/08/11 06:10:30;;;;;;;;;;;;;;;;;;5117165;28;19903;-71
2023/08/11 06:12:56;;;;;;;;;;;;;;;;;;5116116;28;19919;-71
2023/08/11 06:15:22;;;;;;;;;;;;;;;;;;5117411;28;19908;-71
2023/08/11 06:17:50;;;;;;;;;;;;;;;;;;5116376;28;19911;-71
2023/08/11 06:20:17;;;;;;;;;;;;;;;;;;5116256;28;19953;-70
2023/08/11 06:22:43;;;;;;;;;;;;;;;;;;5116277;28;20430;-70
2023/08/11 06:25:09;;;;;;;;;;;;;;;;;;5116715;28;19941;-72
2023/08/11 06:27:35;;;;;;;;;;;;;;;;;;5126378;27;19964;-71
2023/08/11 06:30:04;;;;;;;;;;;;;;;;;;5136161;27;19915;-70
2023/08/11 06:32:29;;;;;;;;;;;;;;;;;;5137028;27;19960;-71
2023/08/11 06:34:55;;;;;;;;;;;;;;;;;;5136526;27;19912;-71
2023/08/11 06:37:21;;;;;;;;;;;;;;;;;;5137334;27;20305;-72
2023/08/11 06:39:48;;;;;;;;;;;;;;;;;;5136413;27;20254;-70
2023/08/11 06:42:13;;;;;;;;;;;;;;;;;;5137275;27;19904;-71
2023/08/11 06:44:39;;;;;;;;;;;;;;;;;;5137576;27;20037;-71
2023/08/11 06:47:05;;;;;;;;;;;;;;;;;;5136213;27;19910;-72
2023/08/11 06:49:31;;;;;;;;;;;;;;;;;;5136660;27;19903;-71
2023/08/11 06:51:57;;;;;;;;;;;;;;;;;;5136243;27;19908;-70
2023/08/11 06:54:23;;;;;;;;;;;;;;;;;;5136948;27;19912;-72
2023/08/11 06:56:49;;;;;;;;;;;;;;;;;;5135795;27;20004;-70
2023/08/11 06:59:15;;;;;;;;;;;;;;;;;;5136666;27;19910;-71
2023/08/11 07:01:41;;;;;;;;;;;;;;;;;;5136876;27;19903;-71
2023/08/11 07:04:07;;;;;;;;;;;;;;;;;;5135882;27;19904;-71
2023/08/11 07:06:33;;;;;;;;;;;;;;;;;;5136955;27;19907;-71
2023/08/11 07:08:59;;;;;;;;;;;;;;;;;;5135025;27;19903;-71
2023/08/11 07:11:24;;;;;;;;;;;;;;;;;;5136224;27;19976;-70
2023/08/11 07:13:50;;;;;;;;;;;;;;;;;;5135922;27;19907;-70
2023/08/11 07:16:16;;;;;;;;;;;;;;;;;;5136343;27;19950;-70
2023/08/11 07:18:42;;;;;;;;;;;;;;;;;;5136131;27;19913;-71
2023/08/11 07:21:08;;;;;;;;;;;;;;;;;;5117214;27;20379;-70
2023/08/11 07:23:34;;;;;;;;;;;;;;;;;;5136288;27;19903;-71
2023/08/11 07:26:00;;;;;;;;;;;;;;;;;;5135352;27;19948;-70
2023/08/11 07:28:26;;;;;;;;;;;;;;;;;;5119061;27;19969;-71
2023/08/11 07:30:51;;;;;;;;;;;;;;;;;;5114305;28;19916;-71
2023/08/11 07:33:17;;;;;;;;;;;;;;;;;;5115700;28;19915;-71
2023/08/11 07:35:43;;;;;;;;;;;;;;;;;;5115834;28;19903;-71
2023/08/11 07:38:09;;;;;;;;;;;;;;;;;;5114615;28;20405;-71
2023/08/11 07:40:35;;;;;;;;;;;;;;;;;;5115466;28;19907;-71
2023/08/11 07:43:01;;;;;;;;;;;;;;;;;;5117704;28;19994;-71
2023/08/11 07:45:27;;;;;;;;;;;;;;;;;;5126126;28;19903;-71
2023/08/11 07:47:53;;;;;;;;;;;;;;;;;;5129015;28;20298;-71
2023/08/11 07:50:19;;;;;;;;;;;;;;;;;;5129400;28;19914;-70
2023/08/11 07:52:45;;;;;;;;;;;;;;;;;;5131424;28;19962;-70
2023/08/11 07:55:11;;;;;;;;;;;;;;;;;;5131353;28;19956;-72
2023/08/11 07:57:37;;;;;;;;;;;;;;;;;;5118735;28;20249;-71
2023/08/11 08:00:05;;;;;;;;;;;;;;;;;;5116323;28;19949;-71
2023/08/11 08:02:30;;;;;;;;;;;;;;;;;;5116295;28;19973;-71
2023/08/11 08:04:56;;;;;;;;;;;;;;;;;;5115325;28;20348;-71
2023/08/11 08:07:22;;;;;;;;;;;;;;;;;;5097011;28;19904;-70
2023/08/11 08:09:48;;;;;;;;;;;;;;;;;;5114965;28;20048;-72
2023/08/11 08:12:15;;;;;;;;;;;22.40;99.90;;;;;;5114677;28;20356;-71
2023/08/11 08:14:42;;;;;;;;;;;22.70;99.90;;;;;;5114845;28;19915;-71
2023/08/11 08:17:07;;;;;;;;;;;22.70;99.90;;;;;;5113747;28;19935;-71
2023/08/11 08:19:33;;;;;;;;;;;22.80;99.90;;;;;;5114558;28;19907;-71
2023/08/11 08:21:58;;;;;;;;;;;22.90;99.90;;;;;;5113737;28;20381;-71
2023/08/11 08:24:24;;;;;;;;;;;23.00;99.90;;;;;;5114370;28;19904;-71
2023/08/11 08:26:51;;;;;;;;;;;23.10;99.90;;;;;;5117466;27;20352;-70
2023/08/11 08:29:16;;;;;;;;;;;23.20;99.90;;;;;;5108848;28;20291;-71
2023/08/11 08:31:42;;;;;;;;;;;23.30;99.90;;;;;;5093945;28;19999;-71
2023/08/11 08:34:07;;;;;;;;;;;23.40;99.90;;;;;;5092907;28;20711;-71
2023/08/11 08:36:33;;;;;;;;;;;23.50;99.90;;;;;;5093994;28;19911;-70
2023/08/11 08:38:58;;;;;;;;;;;23.60;99.90;;;;;;5092812;28;19972;-70
2023/08/11 08:41:27;;;;;;;;;;;23.70;99.90;;;;;;5093922;28;19911;-71
2023/08/11 08:43:54;;;;;;;;;;;23.80;99.90;;;;;;5092922;28;19904;-70
2023/08/11 08:46:20;;;;;;;;;;;24.00;99.90;;;;;;5093902;28;19912;-70
2023/08/11 08:48:48;;;;;;;;;;;24.20;99.90;;;;;;5093707;28;19908;-71
2023/08/11 08:51:14;;;;;;;;;;;24.30;99.90;;;;;;5092804;28;19912;-71
2023/08/11 08:53:39;;;;;;;;;;;24.30;99.90;;;;;;5093384;28;19908;-71
2023/08/11 08:56:06;;;;;;;;;;;24.50;99.90;;;;;;5092725;28;19934;-71
2023/08/11 08:58:32;;;;;;;;;;;24.60;99.90;;;;;;5093395;28;19911;-71
2023/08/11 09:01:01;;;;;;;;;;;24.80;99.90;;;;;;5092554;28;19998;-71
2023/08/11 09:03:28;;;;;;;;;;;24.90;99.90;;;;;;5093457;28;19904;-72
2023/08/11 09:05:54;;;;;;;;;;;25.10;99.90;;;;;;5092393;28;20277;-71
2023/08/11 09:08:19;;;;;;;;;;;25.10;99.90;;;;;;5093148;28;19911;-72
2023/08/11 09:10:45;;;;;;;;;;;25.30;99.90;;;;;;5093204;28;19908;-72
2023/08/11 09:13:11;;;;;;;;;;;25.30;99.90;;;;;;5091987;28;20547;-71
2023/08/11 09:15:37;;;;;;;;;;;25.40;99.90;;;;;;5093064;28;19904;-72
2023/08/11 09:18:02;;;;;;;;;;;25.50;99.90;;;;;;5092098;28;20021;-71
2023/08/11 09:20:28;;;;;;;;;;;25.60;99.90;;;;;;5092873;28;20021;-71
2023/08/11 09:22:54;;;;;;;;;;;25.70;99.90;;;;;;5092187;28;19904;-71
2023/08/11 09:25:19;;;;;;;;;;;25.80;99.90;;;;;;5092546;28;19915;-71
2023/08/11 09:27:48;;;;;;;;;;;26.00;99.90;;;;;;5081776;28;19919;-73
2023/08/11 09:30:14;;;;;;;;;;;26.20;99.90;;;;;;5093509;28;20187;-72
2023/08/11 09:32:39;;;;;;;;;;;26.30;99.90;;;;;;5094227;28;20010;-71
2023/08/11 09:35:12;;;;;;;;;;;26.50;99.90;;;;;;5112113;28;19915;-70
2023/08/11 09:37:38;;;;;;;;;;;26.60;98.80;;;;;;5112866;28;19904;-71
2023/08/11 09:40:04;;;;;;;;;;;26.50;98.70;;;;;;5112372;28;19903;-71
2023/08/11 09:42:31;;;;;;;;;;;26.50;99.40;;;;;;5112945;28;20276;-71
2023/08/11 09:44:56;;;;;;;;;;;26.70;98.50;;;;;;5112138;28;19953;-70
2023/08/11 09:47:21;;;;;;;;;;;26.70;98.40;;;;;;5112891;28;19903;-71
2023/08/11 09:49:47;;;;;;;;;;;26.80;98.60;;;;;;5112879;28;19903;-71
2023/08/11 09:52:13;;;;;;;;;;;26.80;98.40;;;;;;5111815;28;19984;-70
2023/08/11 09:54:41;;;;;;;;;;;27.00;98.10;;;;;;5112763;28;20312;-71
2023/08/11 09:57:07;;;;;;;;;;;27.10;97.60;;;;;;5111931;28;19904;-71
2023/08/11 09:59:33;;;;;;;;;;;27.20;97.00;;;;;;5112398;28;19904;-71
2023/08/11 10:02:01;;;;;;;;;;;27.30;96.90;;;;;;5111779;28;20366;-71
2023/08/11 10:04:27;;;;;;;;;;;27.30;97.30;;;;;;5113088;28;20411;-71
2023/08/11 10:06:55;;;;;;;;;;;;;;;;;;5112899;28;19958;-72
2023/08/11 10:09:21;;;;;;;;;;;;;;;;;;5112652;28;20002;-71
2023/08/11 10:11:47;;;;;;;;;;;27.60;99.90;;;;;;5112436;28;20363;-71
2023/08/11 10:14:14;;;;;;;;;;;27.90;96.10;;;;;;5111844;28;20036;-70
2023/08/11 10:16:40;;;;;;;;;;;28.00;99.90;;;;;;5112685;28;19904;-71
2023/08/11 10:19:06;;;;;;;;;;;28.00;99.90;;;;;;5093650;28;19952;-71
2023/08/11 10:21:32;;;;;;;;;;;28.00;99.90;;;;;;5112289;28;19972;-71
2023/08/11 10:23:58;;;;;;;;;;;28.10;99.90;;;;;;5112368;28;19903;-71
2023/08/11 10:26:24;;;;;;;;;;;28.20;99.90;;;;;;5093908;28;19903;-71
2023/08/11 10:28:50;;;;;;;;;;;28.20;99.90;;;;;;5132931;28;19903;-71
2023/08/11 10:31:16;;;;;;;;;;;28.30;99.90;;;;;;5131426;28;20055;-71
2023/08/11 10:33:47;;;;;;;;;;;28.40;99.90;;;;;;5132800;28;20415;-72
2023/08/11 10:36:15;;;;;;;;;;;28.40;94.50;;;;;;5132482;28;19904;-70
2023/08/11 10:38:40;;;;;;;;;;;28.60;94.60;;;;;;5136520;28;20077;-71
2023/08/11 10:41:08;;;;;;;;;;;28.70;94.20;;;;;;5132128;28;19995;-70
2023/08/11 10:43:34;;;;;;;;;;;28.90;99.90;;;;;;5133839;27;19903;-72
2023/08/11 10:46:15;;;;;;;;;;;29.10;99.90;;;;;;5136268;27;19938;-71
2023/08/11 10:48:40;;;;;;;;;;;29.30;99.90;;;;;;5137022;27;19903;-71
2023/08/11 10:51:21;;;;;;;;;;;29.40;99.90;;;;;;5135899;27;19907;-71
2023/08/11 10:53:47;;;;;;;;;;;29.50;95.10;;;;;;5118513;27;19903;-71
2023/08/11 10:56:12;;;;;;;;;;;29.60;94.70;;;;;;5136158;27;19903;-71
2023/08/11 10:58:38;;;;;;;;;;;29.60;94.50;;;;;;5136626;27;19946;-72
2023/08/11 11:01:03;;;;;;;;;;;29.60;94.10;;;;;;5135794;27;19903;-71
2023/08/11 11:03:29;;;;;;;;;;;29.70;93.80;;;;;;5136364;27;19911;-71
2023/08/11 11:05:54;;;;;;;;;;;29.70;93.50;;;;;;5136403;27;19996;-71
2023/08/11 11:08:20;;;;;;;;;;;29.80;93.50;;;;;;5135682;27;20030;-71
2023/08/11 11:10:46;;;;;;;;;;;29.90;91.40;;;;;;5136252;27;20259;-71
2023/08/11 11:13:11;;;;;;;;;;;30.00;91.50;;;;;;5135585;27;19955;-72
2023/08/11 11:15:37;;;;;;;;;;;30.00;95.10;;;;;;5136209;27;20005;-71
2023/08/11 11:18:02;;;;;;;;;;;30.20;95.60;;;;;;5135098;27;19903;-71
2023/08/11 11:20:28;;;;;;;;;;;30.20;95.50;;;;;;5135885;27;19919;-71
2023/08/11 11:22:54;;;;;;;;;;;30.20;96.40;;;;;;5136179;27;19903;-71
2023/08/11 11:25:20;;;;;;;;;;;30.30;96.40;;;;;;5135181;27;19899;-71
2023/08/11 11:27:45;;;;;;;;;;;30.40;98.60;;;;;;5124653;27;20254;-71
2023/08/11 11:30:11;;;;;;;;;;;30.60;99.10;;;;;;5113669;28;19916;-71
2023/08/11 11:32:38;;;;;;;;;;;30.60;99.30;;;;;;5115371;28;19912;-71
2023/08/11 11:35:04;;;;;;;;;;;30.70;99.90;;;;;;5114239;28;19927;-70
2023/08/11 11:37:31;;;;;;;;;;;30.80;99.80;;;;;;5115318;28;19904;-71
2023/08/11 11:39:58;;;;;;;;;;;30.90;99.90;;;;;;5115300;28;19942;-71
2023/08/11 11:42:27;;;;;;;;;;;31.00;90.10;;;;;;5114622;28;19960;-71
2023/08/11 11:44:52;;;;;;;;;;;31.10;92.10;;;;;;5115160;28;19904;-72
2023/08/11 11:47:18;;;;;;;;;;;31.20;88.50;;;;;;5114378;28;19908;-71
2023/08/11 11:49:43;;;;;;;;;;;31.30;88.70;;;;;;5115017;28;19904;-72
2023/08/11 11:52:09;;;;;;;;;;;31.40;95.30;;;;;;5114149;28;19919;-71
2023/08/11 11:54:35;;;;;;;;;;;31.40;98.30;;;;;;5114839;28;19911;-72
2023/08/11 11:57:02;;;;;;;;;;;31.60;97.60;;;;;;5114107;28;20393;-71
2023/08/11 11:59:28;;;;;;;;;;;31.60;99.20;;;;;;5114541;28;19910;-71
2023/08/11 12:01:57;;;;;;;;;;;31.60;99.40;;;;;;5114901;28;19947;-72
2023/08/11 12:04:24;;;;;;;;;;;31.70;99.90;;;;;;5114033;28;19900;-71
2023/08/11 12:06:49;;;;;;;;;;;31.90;99.90;;;;;;5114701;28;19904;-72
2023/08/11 12:09:15;;;;;;;;;;;32.00;99.90;;;;;;5113931;28;20030;-71
2023/08/11 12:11:42;;;;;;;;;;;;;;;;;;5114738;28;20260;-72
2023/08/11 12:14:09;;;;;;;;;;;;;;;;;;5113649;28;20318;-71
2023/08/11 12:16:37;;;;;;;;;;;;;;;;;;5096440;28;19903;-71
2023/08/11 12:19:03;;;;;;;;;;;;;;;;;;5113845;28;19998;-71
2023/08/11 12:21:29;;;;;;;;;;;;;;;;;;5113990;28;19903;-71
2023/08/11 12:23:55;;;;;;;;;;;;;;;;;;5114390;28;19910;-71
2023/08/11 12:26:20;;;;;;;;;;;;;;;;;;5113597;28;19959;-70
2023/08/11 12:28:46;;;;;;;;;;;;;;;;;;5134258;27;19942;-70
2023/08/11 12:31:12;;;;;;;;;;;;;;;;;;5133142;27;19916;-71
2023/08/11 12:33:39;;;;;;;;;;;;;;;;;;5134971;27;19907;-70
2023/08/11 12:36:05;;;;;;;;;;;33.10;99.90;;;;;;5134255;27;19904;-71
2023/08/11 12:38:31;;;;;;;;;;;33.60;98.50;;;;;;5134099;27;19952;-71
2023/08/11 12:40:58;;;;;;;;;;;;;;;;;;5134677;27;20363;-72
2023/08/11 12:43:24;;;;;;;;;;;;;;;;;;5133963;27;20395;-71
2023/08/11 12:45:50;;;;;;;;;;;;;;;;;;5134493;27;19904;-71
2023/08/11 12:48:16;;;;;;;;;;;;;;;;;;5133540;27;19904;-70
2023/08/11 12:50:43;;;;;;;;;;;;;;;;;;5134777;27;19903;-71
2023/08/11 12:53:10;;;;;;;;;;;;;;;;;;5133271;27;20408;-71
2023/08/11 12:55:37;;;;;;;;;;;;;;;;;;5134280;27;19908;-72
2023/08/11 12:58:04;;;;;;;;;;;;;;;;;;5134276;27;20302;-73
2023/08/11 13:00:30;;;;;;;;;;;;;;;;;;5133824;27;19907;-85
2023/08/11 13:02:56;;;;;;;;;;;;;;;;;;5116785;27;20282;-82
2023/08/11 13:05:24;;;;;;;;;;;;;;;;;;5121119;27;19990;-82
2023/08/11 13:07:50;;;;;;;;;;;;;;;;;;5100033;28;19904;-82
2023/08/11 13:10:16;;;;;;;;;;;;;;;;;;5102165;28;19990;-76
2023/08/11 13:12:44;;;;;;;;;;;;;;;;;;5101901;28;20387;-77
2023/08/11 13:15:10;;;;;;;;;;;;;;;;;;5102863;28;19908;-72
2023/08/11 13:17:36;;;;;;;;;;;;;;;;;;5103479;28;19950;-73
2023/08/11 13:20:06;;;;;;;;;;;;;;;;;;5107171;28;19908;-73
2023/08/11 13:22:33;;;;;;;;;;;;;;;;;;5103387;28;19904;-73
2023/08/11 13:25:00;;;;;;;;;;;;;;;;;;5103645;28;19972;-72
2023/08/11 13:27:27;;;;;;;;;;;;;;;;;;5103326;28;20482;-72
2023/08/11 13:29:54;;;;;;;;;;;;;;;;;;5094916;28;19916;-73
2023/08/11 13:32:21;;;;;;;;;;;;;;;;;;5079126;28;20314;-73
2023/08/11 13:34:48;;;;;;;;;;;;;;;;;;5082896;28;20315;-73
2023/08/11 13:37:14;;;;;;;;;;;;;;;;;;5080548;28;19904;-73
2023/08/11 13:39:41;;;;;;;;;;;;;;;;;;5082502;28;19904;-72
2023/08/11 13:42:09;;;;;;;;;;;;;;;;;;5082702;28;19905;-73
2023/08/11 13:44:35;;;;;;;;;;;;;;;;;;5092660;28;19926;-72
2023/08/11 13:47:02;;;;;;;;;;;;;;;;;;5092235;28;19904;-73
2023/08/11 13:49:30;;;;;;;;;;;;;;;;;;5091751;28;19957;-72
2023/08/11 13:51:57;;;;;;;;;;;;;;;;;;5092427;28;19907;-72
2023/08/11 13:54:24;;;;;;;;;;;;;;;;;;5091963;28;19912;-73
2023/08/11 13:56:51;;;;;;;;;;;;;;;;;;5092425;28;20366;-72
2023/08/11 13:59:18;;;;;;;;;;;;;;;;;;5091572;28;19957;-72
2023/08/11 14:01:45;;;;;;;;;;;;;;;;;;5092409;28;19904;-72
2023/08/11 14:04:12;;;;;;;;;;;;;;;;;;5091758;28;19911;-72
2023/08/11 14:06:39;;;;;;;;;;;;;;;;;;5092252;28;19957;-72
2023/08/11 14:09:06;;;;;;;;;;;;;;;;;;5092446;28;19904;-72
2023/08/11 14:11:32;;;;;;;;;;;;;;;;;;5091365;28;19908;-71
2023/08/11 14:13:59;;;;;;;;;;;;;;;;;;5092400;28;19908;-72
2023/08/11 14:16:26;;;;;;;;;;;;;;;;;;5091699;28;19911;-72
2023/08/11 14:18:53;;;;;;;;;;;;;;;;;;5093558;28;19904;-72
2023/08/11 14:21:20;;;;;;;;;;;;;;;;;;5094355;28;19969;-72
2023/08/11 14:23:46;;;;;;;;;;;;;;;;;;5096539;28;19910;-72
2023/08/11 14:26:12;;;;;;;;;;;;;;;;;;5095571;28;20394;-71
2023/08/11 14:28:40;;;;;;;;;;;;;;;;;;5114922;28;19987;-72
2023/08/11 14:31:06;;;;;;;;;;;;;;;;;;5132373;27;20321;-72
2023/08/11 14:33:32;;;;;;;;;;;;;;;;;;5136432;27;19969;-72
2023/08/11 14:35:58;;;;;;;;;;;;;;;;;;5137633;27;19914;-72
2023/08/11 14:38:24;;;;;;;;;;;;;;;;;;5136764;27;19908;-72
2023/08/11 14:40:50;;;;;;;;;;;;;;;;;;5137333;27;20324;-73
2023/08/11 14:43:16;;;;;;;;;;;;;;;;;;5136327;27;19910;-72
2023/08/11 14:45:42;;;;;;;;;;;;;;;;;;5136951;27;19907;-73
2023/08/11 14:48:07;;;;;;;;;;;;;;;;;;5137084;27;19950;-72
2023/08/11 14:50:33;;;;;;;;;;;;;;;;;;5136259;27;20386;-72
2023/08/11 14:52:59;;;;;;;;;;;;;;;;;;5137105;27;19959;-72
2023/08/11 14:55:25;;;;;;;;;;;;;;;;;;5117758;27;19954;-72
2023/08/11 14:57:51;;;;;;;;;;;;;;;;;;5136591;27;19914;-72
2023/08/11 15:00:17;;;;;;;;;;;;;;;;;;5135789;27;20049;-71
2023/08/11 15:02:43;;;;;;;;;;;;;;;;;;5136664;27;19903;-72
2023/08/11 15:05:09;;;;;;;;;;;;;;;;;;5136766;27;19903;-72
2023/08/11 15:07:35;;;;;;;;;;;;;;;;;;5136297;27;20432;-72
2023/08/11 15:10:02;;;;;;;;;;;;;;;;;;5136530;27;19911;-72
2023/08/11 15:12:28;;;;;;;;;;;;;;;;;;5135683;27;19908;-72
2023/08/11 15:14:54;;;;;;;;;;;;;;;;;;5136573;27;20021;-72
2023/08/11 15:17:20;;;;;;;;;;;;;;;;;;5138059;27;19959;-72
2023/08/11 15:19:46;;;;;;;;;;;;;;;;;;5150487;27;19904;-73
2023/08/11 15:22:12;;;;;;;;;;;;;;;;;;5152198;27;19903;-72
2023/08/11 15:24:38;;;;;;;;;;;;;;;;;;5150327;27;19924;-72
2023/08/11 15:27:04;;;;;;;;;;;;;;;;;;5147294;27;19904;-72
2023/08/11 15:29:29;;;;;;;;;;;;;;;;;;5130094;28;19935;-72
2023/08/11 15:31:55;;;;;;;;;;;;;;;;;;5129081;28;19911;-72
2023/08/11 15:34:21;;;;;;;;;;;;;;;;;;5116574;28;20264;-72
2023/08/11 15:36:47;;;;;;;;;;;;;;;;;;5116264;28;19904;-72
2023/08/11 15:39:13;;;;;;;;;;;;;;;;;;5115974;28;19910;-72
2023/08/11 15:41:39;;;;;;;;;;;;;;;;;;5115525;28;20268;-72
2023/08/11 15:44:05;;;;;;;;;;;;;;;;;;5115805;28;20378;-72
2023/08/11 15:46:31;;;;;;;;;;;;;;;;;;5114739;28;19908;-72